createdAt,value
2019-02-28T00:00:03.178Z,51.73
2019-02-28T00:02:36.258Z,58.90
2019-02-28T00:05:07.666Z,57.93
2019-02-28T00:07:38.914Z,51.85
2019-02-28T00:10:10.464Z,48.33
2019-02-28T00:12:41.861Z,51.50
2019-02-28T00:15:13.052Z,43.55
2019-02-28T00:17:44.289Z,44.38
2019-02-28T00:20:15.552Z,38.63
2019-02-28T00:22:49.277Z,33.30
2019-02-28T00:25:19.967Z,35.48
2019-02-28T00:27:52.638Z,36.77
2019-02-28T00:30:24.109Z,36.05
2019-02-28T00:32:56.303Z,43.15
2019-02-28T00:35:28.690Z,55.33
2019-02-28T00:38:00.026Z,64.10
2019-02-28T00:40:31.402Z,56.77
2019-02-28T00:43:02.658Z,76.67
2019-02-28T00:45:36.493Z,77.45
2019-02-28T00:50:38.800Z,93.70
2019-02-28T00:53:10.167Z,112.52
2019-02-28T00:55:41.683Z,129.57
2019-02-28T00:58:13.042Z,143.65
2019-02-28T01:00:44.368Z,136.77
2019-02-28T01:03:15.809Z,152.15
2019-02-28T01:05:47.149Z,158.12
2019-02-28T01:08:19.191Z,152.02
2019-02-28T01:10:52.001Z,140.52
2019-02-28T01:13:27.311Z,148.35
2019-02-28T01:15:56.850Z,143.07
2019-02-28T01:18:28.224Z,119.82
2019-02-28T01:20:59.581Z,125.75
2019-02-28T01:23:30.976Z,108.78
2019-02-28T01:26:02.386Z,118.47
2019-02-28T01:28:34.148Z,88.52
2019-02-28T01:31:05.357Z,87.60
2019-02-28T01:33:36.612Z,85.07
2019-02-28T01:36:07.921Z,83.92
2019-02-28T01:38:39.193Z,91.67
2019-02-28T01:41:11.200Z,86.85
2019-02-28T01:46:14.467Z,82.75
2019-02-28T01:51:17.572Z,89.40
2019-02-28T01:53:50.370Z,92.10
2019-02-28T01:58:52.483Z,105.85
2019-02-28T02:01:23.908Z,104.80
2019-02-28T02:03:55.237Z,105.72
2019-02-28T02:06:26.653Z,104.35
2019-02-28T02:08:58.995Z,107.15
2019-02-28T02:11:30.335Z,113.72
2019-02-28T02:14:01.721Z,113.65
2019-02-28T02:16:33.324Z,102.97
2019-02-28T02:19:04.704Z,112.03
2019-02-28T02:21:36.109Z,111.30
2019-02-28T02:24:07.467Z,108.67
2019-02-28T02:26:38.789Z,97.75
2019-02-28T02:29:10.029Z,90.30
2019-02-28T02:31:43.601Z,91.78
2019-02-28T02:36:45.302Z,88.87
2019-02-28T02:39:17.814Z,99.70
2019-02-28T02:41:49.346Z,95.45
2019-02-28T02:44:20.600Z,71.57
2019-02-28T02:46:55.524Z,58.35
2019-02-28T02:49:24.927Z,48.95
2019-02-28T02:51:56.638Z,45.63
2019-02-28T02:54:28.031Z,36.77
2019-02-28T02:57:00.575Z,42.38
2019-02-28T02:59:37.567Z,35.20
2019-02-28T03:04:35.625Z,24.57
2019-02-28T03:07:06.877Z,26.25
2019-02-28T03:09:43.426Z,26.07
2019-02-28T03:14:41.706Z,18.10
2019-02-28T03:17:13.254Z,19.35
2019-02-28T03:19:44.695Z,21.15
2019-02-28T03:22:15.923Z,18.82
2019-02-28T03:24:50.635Z,21.17
2019-02-28T03:29:51.632Z,22.75
2019-02-28T03:32:22.909Z,19.70
2019-02-28T03:34:57.961Z,15.53
2019-02-28T03:37:32.836Z,17.77
2019-02-28T03:42:32.342Z,19.02
2019-02-28T03:45:04.541Z,17.37
2019-02-28T03:47:35.879Z,20.97
2019-02-28T03:50:08.788Z,20.77
2019-02-28T03:52:44.053Z,21.25
2019-02-28T03:57:45.882Z,24.18
2019-02-28T04:00:21.461Z,20.45
2019-02-28T04:02:57.368Z,19.65
2019-02-28T04:05:28.022Z,19.85
2019-02-28T04:10:29.628Z,19.67
2019-02-28T04:13:01.258Z,20.15
2019-02-28T04:15:32.513Z,16.65
2019-02-28T04:18:07.505Z,16.37
2019-02-28T04:23:08.932Z,17.98
2019-02-28T04:25:40.179Z,23.95
2019-02-28T04:28:17.186Z,24.23
2019-02-28T04:33:15.780Z,28.47
2019-02-28T04:35:47.161Z,30.80
2019-02-28T04:38:20.896Z,25.12
2019-02-28T04:40:54.039Z,26.07
2019-02-28T04:43:25.371Z,21.12
2019-02-28T04:45:58.443Z,21.15
2019-02-28T04:48:29.777Z,20.57
2019-02-28T04:51:02.344Z,25.85
2019-02-28T04:53:34.265Z,20.55
2019-02-28T04:56:11.034Z,19.65
2019-02-28T04:58:38.595Z,20.48
2019-02-28T05:01:12.287Z,17.85
2019-02-28T05:03:42.969Z,17.57
2019-02-28T05:06:14.325Z,19.77
2019-02-28T05:08:45.622Z,21.02
2019-02-28T05:11:16.911Z,22.65
2019-02-28T05:13:48.854Z,20.43
2019-02-28T05:16:21.151Z,20.08
2019-02-28T05:18:52.442Z,21.95
2019-02-28T05:21:23.837Z,22.60
2019-02-28T05:23:55.207Z,22.60
2019-02-28T05:26:27.034Z,20.90
2019-02-28T05:28:58.372Z,23.07
2019-02-28T05:31:29.695Z,27.67
2019-02-28T05:34:01.028Z,26.80
2019-02-28T05:36:37.205Z,24.98
2019-02-28T05:41:36.562Z,25.45
2019-02-28T05:44:07.970Z,32.95
2019-02-28T05:46:39.214Z,29.27
2019-02-28T05:49:10.591Z,37.63
2019-02-28T05:51:41.930Z,36.90
2019-02-28T05:54:16.925Z,32.17
2019-02-28T05:56:46.351Z,38.13
2019-02-28T05:59:17.713Z,43.50
2019-02-28T06:01:49.019Z,47.27
2019-02-28T06:04:20.671Z,50.75
2019-02-28T06:06:54.711Z,41.90
2019-02-28T06:09:25.688Z,39.50
2019-02-28T06:11:57.073Z,40.52
2019-02-28T06:14:28.421Z,40.58
2019-02-28T06:16:59.709Z,28.17
2019-02-28T06:19:31.082Z,26.77
2019-02-28T06:22:02.376Z,21.70
2019-02-28T06:24:33.607Z,25.60
2019-02-28T06:27:06.772Z,23.67
2019-02-28T06:29:38.418Z,24.35
2019-02-28T06:32:09.860Z,27.85
2019-02-28T06:34:42.287Z,27.25
2019-02-28T06:37:15.642Z,31.50
2019-02-28T06:39:46.962Z,28.77
2019-02-28T06:42:18.386Z,34.18
2019-02-28T06:44:49.722Z,31.52
2019-02-28T06:47:20.992Z,28.90
2019-02-28T06:49:52.416Z,26.17
2019-02-28T06:52:25.263Z,24.65
2019-02-28T06:54:56.943Z,26.05
2019-02-28T06:57:28.259Z,21.42
2019-02-28T06:59:59.648Z,23.02
2019-02-28T07:02:31.434Z,18.37
2019-02-28T07:05:03.502Z,22.60
2019-02-28T07:07:34.826Z,21.05
2019-02-28T07:10:14.440Z,18.32
2019-02-28T07:12:47.218Z,19.80
2019-02-28T07:15:23.782Z,16.02
2019-02-28T07:20:22.158Z,17.95
2019-02-28T07:22:55.596Z,18.20
2019-02-28T07:25:26.846Z,18.17
2019-02-28T07:28:01.509Z,22.30
2019-02-28T07:30:41.095Z,29.77
2019-02-28T07:33:12.437Z,24.02
2019-02-28T07:35:43.857Z,21.42
2019-02-28T07:38:15.299Z,19.07
2019-02-28T07:40:49.475Z,21.50
2019-02-28T07:45:52.297Z,21.15
2019-02-28T07:48:28.591Z,30.70
2019-02-28T07:50:59.274Z,24.35
2019-02-28T07:53:31.858Z,21.82
2019-02-28T07:56:07.089Z,20.57
2019-02-28T07:58:37.823Z,17.67
2019-02-28T08:01:09.421Z,18.90
2019-02-28T08:03:43.426Z,15.85
2019-02-28T08:08:44.755Z,15.80
2019-02-28T08:11:16.053Z,20.20
2019-02-28T08:13:47.500Z,22.13
2019-02-28T08:16:18.956Z,19.90
2019-02-28T08:18:51.265Z,17.37
2019-02-28T08:21:23.494Z,21.62
2019-02-28T08:23:57.507Z,21.02
2019-02-28T08:26:31.198Z,21.05
2019-02-28T08:31:35.218Z,21.50
2019-02-28T08:34:06.822Z,21.73
2019-02-28T08:36:38.217Z,22.58
2019-02-28T08:39:12.053Z,27.80
2019-02-28T08:41:43.796Z,30.32
2019-02-28T08:44:15.337Z,26.73
2019-02-28T08:46:48.012Z,27.05
2019-02-28T08:49:19.261Z,26.95
2019-02-28T08:51:50.606Z,25.52
2019-02-28T08:54:26.249Z,23.75
2019-02-28T08:56:58.231Z,21.15
2019-02-28T09:02:00.538Z,22.35
2019-02-28T09:04:40.792Z,18.52
2019-02-28T09:07:05.122Z,14.28
2019-02-28T09:09:36.396Z,11.68
2019-02-28T09:12:09.584Z,11.18
2019-02-28T09:14:40.984Z,11.53
2019-02-28T09:17:12.347Z,9.90
2019-02-28T09:19:43.854Z,10.65
2019-02-28T09:22:15.244Z,11.15
2019-02-28T09:24:47.411Z,10.70
2019-02-28T09:27:18.906Z,7.28
2019-02-28T09:29:54.511Z,8.53
2019-02-28T09:32:25.636Z,11.50
2019-02-28T09:34:57.136Z,10.45
2019-02-28T09:37:30.571Z,8.78
2019-02-28T09:40:02.148Z,8.53
2019-02-28T09:42:35.430Z,10.68
2019-02-28T09:45:15.692Z,9.90
2019-02-28T09:47:48.228Z,13.93
2019-02-28T09:50:22.563Z,11.93
2019-02-28T09:52:56.972Z,9.78
2019-02-28T09:55:34.277Z,9.75
2019-02-28T09:58:07.211Z,10.05
2019-02-28T10:00:38.645Z,10.00
2019-02-28T10:03:12.015Z,15.83
2019-02-28T10:05:43.474Z,18.10
2019-02-28T10:08:17.651Z,12.23
2019-02-28T10:10:52.397Z,11.57
2019-02-28T10:13:31.044Z,9.88
2019-02-28T10:16:03.945Z,14.30
2019-02-28T10:18:38.720Z,10.78
2019-02-28T10:21:10.228Z,9.40
2019-02-28T10:23:42.882Z,10.53
2019-02-28T10:28:48.570Z,13.50
2019-02-28T10:31:22.882Z,7.95
2019-02-28T10:33:53.765Z,13.85
2019-02-28T10:36:25.147Z,9.88
2019-02-28T10:38:56.824Z,11.83
2019-02-28T10:41:36.193Z,10.05
2019-02-28T10:44:09.668Z,8.93
2019-02-28T10:46:41.083Z,10.72
2019-02-28T10:49:14.077Z,12.35
2019-02-28T10:51:49.607Z,12.65
2019-02-28T10:54:18.694Z,14.23
2019-02-28T10:56:51.616Z,18.15
2019-02-28T10:59:24.433Z,11.45
2019-02-28T11:02:00.205Z,14.90
2019-02-28T11:04:35.864Z,17.82
2019-02-28T11:07:07.378Z,16.65
2019-02-28T11:09:41.502Z,18.52
2019-02-28T11:12:19.634Z,20.15
2019-02-28T11:14:47.341Z,11.43
2019-02-28T11:17:18.722Z,14.07
2019-02-28T11:19:52.046Z,13.05
2019-02-28T11:22:28.106Z,22.58
2019-02-28T11:25:00.956Z,19.90
2019-02-28T11:27:32.979Z,15.48
2019-02-28T11:30:10.835Z,17.32
2019-02-28T11:32:42.457Z,17.77
2019-02-28T11:35:13.795Z,22.02
2019-02-28T11:37:46.182Z,16.37
2019-02-28T11:40:22.693Z,20.97
2019-02-28T11:42:54.545Z,16.05
2019-02-28T11:45:28.924Z,18.25
2019-02-28T11:48:02.612Z,21.33
2019-02-28T11:50:34.399Z,17.98
2019-02-28T11:53:06.129Z,18.12
2019-02-28T11:55:37.474Z,15.10
2019-02-28T11:58:09.137Z,18.70
2019-02-28T12:00:43.955Z,20.20
2019-02-28T12:03:15.531Z,14.25
2019-02-28T12:05:50.034Z,15.63
2019-02-28T12:08:22.248Z,17.85
2019-02-28T12:10:58.316Z,22.42
2019-02-28T12:13:27.900Z,15.78
2019-02-28T12:15:59.744Z,22.25
2019-02-28T12:18:31.472Z,21.42
2019-02-28T12:21:04.928Z,15.00
2019-02-28T12:23:36.302Z,15.18
2019-02-28T12:26:07.614Z,23.95
2019-02-28T12:28:39.237Z,29.37
2019-02-28T12:31:11.629Z,20.02
2019-02-28T12:33:45.722Z,17.45
2019-02-28T12:36:17.591Z,18.80
2019-02-28T12:38:49.373Z,14.87
2019-02-28T12:41:21.630Z,21.85
2019-02-28T12:46:32.762Z,18.20
2019-02-28T12:49:06.187Z,20.12
2019-02-28T12:51:39.712Z,20.30
2019-02-28T12:54:11.277Z,21.97
2019-02-28T12:56:45.193Z,19.82
2019-02-28T12:59:15.801Z,16.30
2019-02-28T13:01:49.263Z,19.30
2019-02-28T13:04:20.691Z,21.17
2019-02-28T13:06:55.576Z,16.62
2019-02-28T13:09:25.508Z,20.23
2019-02-28T13:11:57.288Z,17.35
2019-02-28T13:14:28.825Z,17.23
2019-02-28T13:17:00.614Z,18.10
2019-02-28T13:19:32.430Z,20.82
2019-02-28T13:22:04.390Z,21.87
2019-02-28T13:24:36.049Z,19.55
2019-02-28T13:27:09.814Z,21.48
2019-02-28T13:29:41.420Z,19.25
2019-02-28T13:32:13.371Z,19.75
2019-02-28T13:34:45.258Z,18.95
2019-02-28T13:37:16.734Z,19.62
2019-02-28T13:39:48.048Z,19.82
2019-02-28T13:42:19.207Z,18.50
2019-02-28T13:44:50.946Z,19.57
2019-02-28T13:47:22.802Z,24.80
2019-02-28T13:49:56.993Z,23.02
2019-02-28T13:52:28.565Z,26.60
2019-02-28T13:55:00.442Z,19.02
2019-02-28T13:57:32.337Z,22.32
2019-02-28T14:00:07.841Z,24.18
2019-02-28T14:02:39.109Z,21.52
2019-02-28T14:05:12.426Z,16.32
2019-02-28T14:07:44.038Z,22.73
2019-02-28T14:12:57.029Z,19.42
2019-02-28T14:15:48.100Z,23.73
2019-02-28T14:18:18.762Z,30.65
2019-02-28T14:20:50.280Z,27.58
2019-02-28T14:23:22.531Z,22.35
2019-02-28T14:25:53.885Z,23.35
2019-02-28T14:28:25.744Z,20.72
2019-02-28T14:30:57.790Z,24.90
2019-02-28T14:33:30.622Z,22.35
2019-02-28T14:36:03.325Z,24.12
2019-02-28T14:38:35.032Z,28.02
2019-02-28T14:41:07.829Z,20.92
2019-02-28T14:43:40.096Z,25.23
2019-02-28T14:46:11.744Z,29.65
2019-02-28T14:48:43.705Z,26.10
2019-02-28T14:51:15.054Z,30.92
2019-02-28T14:53:49.126Z,28.25
2019-02-28T14:56:19.656Z,28.70
2019-02-28T14:58:54.530Z,30.50
2019-02-28T15:01:24.643Z,31.68
2019-02-28T15:03:56.504Z,29.23
2019-02-28T15:06:29.523Z,31.62
2019-02-28T15:09:02.789Z,30.00
2019-02-28T15:11:37.263Z,31.27
2019-02-28T15:14:09.793Z,36.60
2019-02-28T15:16:41.343Z,32.65
2019-02-28T15:19:13.000Z,30.17
2019-02-28T15:21:44.581Z,32.10
2019-02-28T15:24:18.617Z,36.28
2019-02-28T15:26:50.322Z,30.88
2019-02-28T15:29:23.452Z,37.70
2019-02-28T15:31:55.274Z,40.70
2019-02-28T15:34:26.936Z,43.17
2019-02-28T15:36:59.269Z,39.03
2019-02-28T15:39:31.562Z,34.50
2019-02-28T15:42:05.475Z,40.23
2019-02-28T15:44:36.522Z,35.85
2019-02-28T15:47:08.392Z,40.92
2019-02-28T15:49:41.757Z,39.42
2019-02-28T15:52:13.993Z,33.38
2019-02-28T15:54:48.637Z,40.48
2019-02-28T15:57:20.329Z,36.10
2019-02-28T15:59:51.986Z,40.50
2019-02-28T16:02:23.882Z,35.50
2019-02-28T16:04:57.744Z,36.80
2019-02-28T16:07:32.411Z,38.55
2019-02-28T16:10:01.681Z,39.10
2019-02-28T16:12:33.535Z,40.13
2019-02-28T16:15:08.739Z,40.83
2019-02-28T16:17:41.481Z,38.95
2019-02-28T16:20:14.964Z,38.95
2019-02-28T16:22:52.057Z,44.42
2019-02-28T16:25:24.623Z,40.58
2019-02-28T16:27:56.897Z,45.35
2019-02-28T16:30:31.822Z,42.00
2019-02-28T16:33:01.735Z,40.92
2019-02-28T16:35:33.508Z,42.10
2019-02-28T16:38:06.485Z,39.85
2019-02-28T16:40:38.247Z,40.80
2019-02-28T16:43:10.103Z,39.80
2019-02-28T16:45:43.406Z,41.42
2019-02-28T16:48:14.952Z,38.65
2019-02-28T16:50:46.545Z,40.28
2019-02-28T16:53:18.189Z,37.38
2019-02-28T16:55:51.964Z,47.13
2019-02-28T16:58:23.619Z,40.98
2019-02-28T17:00:55.279Z,42.58
2019-02-28T17:03:27.046Z,44.27
2019-02-28T17:06:01.582Z,41.35
2019-02-28T17:08:33.123Z,37.78
2019-02-28T17:11:05.583Z,41.68
2019-02-28T17:13:39.488Z,36.28
2019-02-28T17:16:18.705Z,37.23
2019-02-28T17:18:53.487Z,39.25
2019-02-28T17:21:23.579Z,33.53
2019-02-28T17:23:55.651Z,38.17
2019-02-28T17:26:31.053Z,34.70
2019-02-28T17:29:06.326Z,33.58
2019-02-28T17:31:44.562Z,32.70
2019-02-28T17:34:17.533Z,36.77
2019-02-28T17:39:20.334Z,30.80
2019-02-28T17:41:51.981Z,34.90
2019-02-28T17:44:33.988Z,31.25
2019-02-28T17:47:27.038Z,32.33
2019-02-28T17:50:07.785Z,36.33
2019-02-28T17:52:43.862Z,32.70
2019-02-28T17:55:42.554Z,33.88
2019-02-28T17:58:32.769Z,35.03
2019-02-28T18:01:29.938Z,31.52
2019-02-28T18:04:12.124Z,33.10
2019-02-28T18:07:23.642Z,32.03
2019-02-28T18:10:12.966Z,34.53
2019-02-28T18:13:07.663Z,31.30
2019-02-28T18:15:51.404Z,28.62
2019-02-28T18:18:29.328Z,28.40
2019-02-28T18:21:09.970Z,28.60
2019-02-28T18:24:00.211Z,33.42
2019-02-28T18:26:59.687Z,31.37
2019-02-28T18:29:50.777Z,29.00
2019-02-28T18:32:22.639Z,30.00
2019-02-28T18:34:56.269Z,31.10
2019-02-28T18:37:27.698Z,33.78
2019-02-28T18:39:59.039Z,33.80
2019-02-28T18:42:30.589Z,28.87
2019-02-28T18:45:02.261Z,33.78
2019-02-28T18:47:36.018Z,36.88
2019-02-28T18:50:08.458Z,28.25
2019-02-28T18:52:39.776Z,27.73
2019-02-28T18:55:11.432Z,33.67
2019-02-28T18:57:43.304Z,33.30
2019-02-28T19:00:17.001Z,27.80
2019-02-28T19:02:48.761Z,34.30
2019-02-28T19:05:20.618Z,28.05
2019-02-28T19:07:52.286Z,30.72
2019-02-28T19:10:24.039Z,32.42
2019-02-28T19:12:55.893Z,30.30
2019-02-28T19:15:27.554Z,38.58
2019-02-28T19:17:59.518Z,33.50
2019-02-28T19:20:31.163Z,37.38
2019-02-28T19:23:02.425Z,35.43
2019-02-28T19:25:34.177Z,36.88
2019-02-28T19:28:05.833Z,33.00
2019-02-28T19:30:37.438Z,36.77
2019-02-28T19:33:09.039Z,35.58
2019-02-28T19:35:40.795Z,39.20
2019-02-28T19:38:12.139Z,33.92
2019-02-28T19:40:43.899Z,32.08
2019-02-28T19:43:15.555Z,30.35
2019-02-28T19:45:50.492Z,35.60
2019-02-28T19:48:22.371Z,34.43
2019-02-28T19:50:54.112Z,39.63
2019-02-28T19:53:25.665Z,33.90
2019-02-28T19:55:57.327Z,31.23
2019-02-28T19:58:30.109Z,32.70
2019-02-28T20:01:01.884Z,34.73
2019-02-28T20:03:33.511Z,35.98
2019-02-28T20:06:05.184Z,32.83
2019-02-28T20:08:36.827Z,35.45
2019-02-28T20:11:08.484Z,32.90
2019-02-28T20:13:40.038Z,33.83
2019-02-28T20:16:11.899Z,41.40
2019-02-28T20:18:44.580Z,32.38
2019-02-28T20:21:19.217Z,35.03
2019-02-28T20:23:50.958Z,34.43
2019-02-28T20:26:22.619Z,32.35
2019-02-28T20:28:54.270Z,32.58
2019-02-28T20:31:26.671Z,28.17
2019-02-28T20:33:57.989Z,31.97
2019-02-28T20:36:30.569Z,33.55
2019-02-28T20:39:02.231Z,32.95
2019-02-28T20:41:35.419Z,33.80
2019-02-28T20:44:07.074Z,32.98
2019-02-28T20:46:39.041Z,30.27
2019-02-28T20:49:10.693Z,34.75
2019-02-28T20:51:42.353Z,34.40
2019-02-28T20:54:14.004Z,36.53
2019-02-28T20:56:45.674Z,29.00
2019-02-28T20:59:17.831Z,31.23
2019-02-28T21:01:49.795Z,33.98
2019-02-28T21:04:21.451Z,30.23
2019-02-28T21:06:53.116Z,33.88
2019-02-28T21:09:25.789Z,31.20
2019-02-28T21:11:57.553Z,34.13
2019-02-28T21:14:29.102Z,33.13
2019-02-28T21:17:00.965Z,40.30
2019-02-28T21:19:32.615Z,38.10
2019-02-28T21:22:04.173Z,39.33
2019-02-28T21:24:35.826Z,36.88
2019-02-28T21:27:07.479Z,46.28
2019-02-28T21:29:39.142Z,42.53
2019-02-28T21:32:10.997Z,44.63
2019-02-28T21:34:42.760Z,45.10
2019-02-28T21:37:14.621Z,46.35
2019-02-28T21:39:46.699Z,50.60
2019-02-28T21:42:19.873Z,50.95
2019-02-28T21:44:51.424Z,44.88
2019-02-28T21:47:23.188Z,54.98
2019-02-28T21:49:54.430Z,50.30
2019-02-28T21:52:26.190Z,51.30
2019-02-28T21:54:57.851Z,48.65
2019-02-28T21:57:29.600Z,41.23
2019-02-28T22:00:01.172Z,49.65
2019-02-28T22:05:05.190Z,50.38
2019-02-28T22:07:37.157Z,55.88
2019-02-28T22:10:13.729Z,48.02
2019-02-28T22:12:45.372Z,47.65
2019-02-28T22:15:19.497Z,43.68
2019-02-28T22:17:54.116Z,41.58
2019-02-28T22:20:25.777Z,37.40
2019-02-28T22:22:57.323Z,39.73
2019-02-28T22:25:29.085Z,38.83
2019-02-28T22:28:00.740Z,46.68
2019-02-28T22:30:37.110Z,49.23
2019-02-28T22:33:13.272Z,46.50
2019-02-28T22:36:02.843Z,42.40
2019-02-28T22:38:34.394Z,34.43
2019-02-28T22:41:06.046Z,34.83
2019-02-28T22:43:37.703Z,35.73
2019-02-28T22:46:09.257Z,36.23
2019-02-28T22:48:41.016Z,39.30
2019-02-28T22:51:12.589Z,34.03
2019-02-28T22:53:44.326Z,36.33
2019-02-28T22:56:15.572Z,38.05
2019-02-28T22:58:47.532Z,34.63
2019-02-28T23:01:22.572Z,34.85
2019-02-28T23:03:53.925Z,33.95
2019-02-28T23:06:27.527Z,34.70
2019-02-28T23:08:59.282Z,35.58
2019-02-28T23:11:30.943Z,31.15
2019-02-28T23:14:02.605Z,33.60
2019-02-28T23:16:34.357Z,33.08
2019-02-28T23:19:06.008Z,36.55
2019-02-28T23:21:37.659Z,32.40
2019-02-28T23:24:09.320Z,44.80
2019-02-28T23:27:03.602Z,42.50
2019-02-28T23:29:35.268Z,43.25
2019-02-28T23:32:25.155Z,43.95
2019-02-28T23:34:58.342Z,43.13
2019-02-28T23:37:29.995Z,37.63
2019-02-28T23:40:01.647Z,38.05
2019-02-28T23:42:33.411Z,42.53
2019-02-28T23:45:06.702Z,42.10
2019-02-28T23:47:38.367Z,42.93
2019-02-28T23:50:10.528Z,48.52
2019-02-28T23:52:42.119Z,47.40
2019-02-28T23:55:13.562Z,57.65
2019-02-28T23:57:45.299Z,50.52
